Wetterstation Vordersexau
Wetterdaten: Woche 03.12.12 - 09.12.12 (KW49)
Datum Zeit Temp. A. Feuchte A. Luftdruck Regen Wind Richtung Taupunkt Windchill Windben
03.12.2012 00:00 0,6 C 87 % 1016,5 hPa 0,0 l/m 3,9 km/h W -1,3 C 0,6 C 2,2 km/h
03.12.2012 01:00 0,8 C 87 % 1016,7 hPa 0,0 l/m 0,6 km/h W-NW -1,1 C 0,8 C 0,4 km/h
03.12.2012 02:00 0,1 C 87 % 1017,1 hPa 0,0 l/m 0,0 km/h W-SW -1,8 C 0,1 C 0,0 km/h
03.12.2012 03:00 -0,7 C 87 % 1017,4 hPa 0,0 l/m 0,0 km/h SW -2,6 C -0,7 C 0,0 km/h
03.12.2012 04:00 -0,8 C 87 % 1017,7 hPa 0,0 l/m 5,8 km/h NO -2,7 C -0,8 C 3,2 km/h
03.12.2012 05:00 -1,7 C 87 % 1017,8 hPa 0,0 l/m 0,0 km/h O-NO -3,6 C -1,7 C 0,0 km/h
03.12.2012 06:00 -2,6 C 87 % 1017,8 hPa 0,0 l/m 0,0 km/h O-NO -4,5 C -2,6 C 0,0 km/h
03.12.2012 07:00 -3,3 C 86 % 1017,9 hPa 0,0 l/m 0,0 km/h O-NO -5,3 C -3,3 C 0,0 km/h
03.12.2012 08:00 -3,1 C 85 % 1018,1 hPa 0,0 l/m 2,6 km/h SO -5,3 C -3,1 C 1,4 km/h
03.12.2012 09:00 0,8 C 87 % 1017,8 hPa 0,0 l/m 5,2 km/h S-SO -1,1 C 0,8 C 2,9 km/h
03.12.2012 10:00 0,9 C 85 % 1016,8 hPa 0,0 l/m 0,0 km/h SW -1,3 C 0,9 C 0,0 km/h
03.12.2012 11:00 3,6 C 75 % 1016,2 hPa 0,0 l/m 2,6 km/h W -0,4 C 3,6 C 1,4 km/h
03.12.2012 12:00 3,4 C 69 % 1015,0 hPa 0,0 l/m 12,3 km/h W -1,7 C -1,3 C 6,8 km/h
03.12.2012 13:00 1,6 C 73 % 1014,6 hPa 0,0 l/m 21,4 km/h S-SO -2,7 C -8,2 C 11,9 km/h
03.12.2012 14:00 0,3 C 84 % 1012,7 hPa 0,0 l/m 0,0 km/h W-NW -2,1 C 0,3 C 0,0 km/h
03.12.2012 15:00 0,3 C 86 % 1011,4 hPa 0,0 l/m 0,0 km/h S-SO -1,8 C 0,3 C 0,0 km/h
03.12.2012 16:00 0,3 C 87 % 1010,9 hPa 0,0 l/m 0,0 km/h S -1,6 C 0,3 C 0,0 km/h
03.12.2012 17:00 1,6 C 87 % 1010,4 hPa 0,0 l/m 9,7 km/h W -0,3 C -1,4 C 5,4 km/h
03.12.2012 18:00 4,5 C 86 % 1009,7 hPa 0,7 l/m 32,4 km/h SW 2,4 C -7,7 C 18,0 km/h
03.12.2012 19:00 5,4 C 86 % 1008,8 hPa 0,0 l/m 2,6 km/h W-SW 3,3 C 5,4 C 1,4 km/h
03.12.2012 20:00 5,3 C 86 % 1007,7 hPa 0,0 l/m 10,4 km/h W 3,2 C 2,1 C 5,8 km/h
03.12.2012 21:00 5,2 C 86 % 1007,3 hPa 0,0 l/m 14,9 km/h SW 3,1 C -0,6 C 8,3 km/h
03.12.2012 22:00 6,1 C 84 % 1006,5 hPa 0,7 l/m 7,8 km/h NW 3,6 C 4,9 C 4,3 km/h
03.12.2012 23:00 6,2 C 86 % 1006,7 hPa 0,0 l/m 18,8 km/h W 4,0 C -1,2 C 10,4 km/h
04.12.2012 00:00 6,2 C 86 % 1006,2 hPa 0,0 l/m 21,4 km/h W 4,0 C -2,1 C 11,9 km/h
04.12.2012 01:00 6,1 C 86 % 1005,5 hPa 0,0 l/m 33,7 km/h W 3,9 C -5,7 C 18,7 km/h
04.12.2012 02:00 6,2 C 84 % 1004,5 hPa 0,0 l/m 5,2 km/h SW 3,7 C 6,2 C 2,9 km/h
04.12.2012 03:00 6,1 C 82 % 1002,8 hPa 0,0 l/m 4,5 km/h SW 3,3 C 6,1 C 2,5 km/h
04.12.2012 04:00 5,8 C 82 % 1000,8 hPa 0,0 l/m 0,0 km/h W 3,0 C 5,8 C 0,0 km/h
04.12.2012 05:00 5,1 C 85 % 999,7 hPa 0,0 l/m 0,0 km/h NO 2,8 C 5,1 C 0,0 km/h
04.12.2012 06:00 4,8 C 86 % 998,7 hPa 0,4 l/m 0,0 km/h W 2,7 C 4,8 C 0,0 km/h
04.12.2012 07:00 6,7 C 85 % 998,3 hPa 0,0 l/m 12,3 km/h SW 4,4 C 2,5 C 6,8 km/h
04.12.2012 08:00 6,9 C 84 % 999,0 hPa 0,0 l/m 27,9 km/h NW 4,4 C -3,2 C 15,5 km/h
04.12.2012 09:00 6,5 C 83 % 1001,4 hPa 0,0 l/m 57,0 km/h N 3,8 C -8,4 C 31,7 km/h
04.12.2012 10:00 5,6 C 76 % 1003,2 hPa 0,0 l/m 13,0 km/h W-NW 1,7 C 0,9 C 7,2 km/h
04.12.2012 11:00 4,9 C 80 % 1003,8 hPa 0,0 l/m 4,5 km/h N-NO 1,7 C 4,9 C 2,5 km/h
04.12.2012 12:00 4,1 C 84 % 1003,3 hPa 0,4 l/m 0,0 km/h SO 1,6 C 4,1 C 0,0 km/h
04.12.2012 13:00 3,6 C 86 % 1002,9 hPa 0,7 l/m 0,0 km/h O 1,5 C 3,6 C 0,0 km/h
04.12.2012 14:00 3,9 C 86 % 1001,9 hPa 0,0 l/m 0,0 km/h W 1,8 C 3,9 C 0,0 km/h
04.12.2012 15:00 4,2 C 86 % 1001,6 hPa 0,0 l/m 23,3 km/h N-NO 2,1 C -5,5 C 13,0 km/h
04.12.2012 16:00 2,6 C 86 % 1003,0 hPa 1,1 l/m 4,5 km/h S-SW 0,5 C 2,6 C 2,5 km/h
04.12.2012 17:00 2,1 C 85 % 1003,6 hPa 0,4 l/m 0,0 km/h O-SO -0,2 C 2,1 C 0,0 km/h
04.12.2012 18:00 1,9 C 85 % 1003,7 hPa 0,0 l/m 0,0 km/h SO -0,3 C 1,9 C 0,0 km/h
04.12.2012 19:00 2,1 C 83 % 1003,5 hPa 0,0 l/m 0,0 km/h W -0,5 C 2,1 C 0,0 km/h
04.12.2012 20:00 3,4 C 86 % 1003,1 hPa 0,0 l/m 7,1 km/h W 1,3 C 2,7 C 4,0 km/h
04.12.2012 21:00 3,4 C 87 % 1002,7 hPa 0,0 l/m 19,4 km/h W 1,4 C -5,0 C 10,8 km/h
04.12.2012 22:00 2,1 C 86 % 1003,1 hPa 1,1 l/m 3,2 km/h W-NW 0,0 C 2,1 C 1,8 km/h
04.12.2012 23:00 2,3 C 84 % 1002,6 hPa 0,0 l/m 0,6 km/h W-SW -0,1 C 2,3 C 0,4 km/h
05.12.2012 00:00 2,9 C 82 % 1002,3 hPa 0,0 l/m 2,6 km/h SW 0,1 C 2,9 C 1,4 km/h
05.12.2012 01:00 2,5 C 83 % 1001,9 hPa 0,0 l/m 2,6 km/h SW -0,1 C 2,5 C 1,4 km/h
05.12.2012 02:00 1,4 C 84 % 1001,5 hPa 0,0 l/m 0,6 km/h W -1,0 C 1,4 C 0,4 km/h
05.12.2012 03:00 1,8 C 82 % 1001,4 hPa 0,0 l/m 0,0 km/h W-SW -0,9 C 1,8 C 0,0 km/h
05.12.2012 04:00 2,5 C 82 % 1001,2 hPa 0,0 l/m 0,0 km/h W-SW -0,3 C 2,5 C 0,0 km/h
05.12.2012 05:00 2,6 C 85 % 1001,1 hPa 0,0 l/m 17,5 km/h W-NW 0,3 C -5,1 C 9,7 km/h
05.12.2012 06:00 1,9 C 85 % 1001,4 hPa 0,4 l/m 1,3 km/h W -0,3 C 1,9 C 0,7 km/h
05.12.2012 07:00 1,6 C 83 % 1001,9 hPa 0,7 l/m 0,6 km/h W -1,0 C 1,6 C 0,4 km/h
05.12.2012 08:00 1,6 C 82 % 1002,4 hPa 0,0 l/m 2,6 km/h W -1,1 C 1,6 C 1,4 km/h
05.12.2012 09:00 1,9 C 81 % 1002,9 hPa 0,0 l/m 7,8 km/h W -1,0 C 0,5 C 4,3 km/h
05.12.2012 10:00 2,5 C 81 % 1003,5 hPa 0,0 l/m 11,0 km/h W-SW -0,4 C -1,4 C 6,1 km/h
05.12.2012 11:00 2,8 C 82 % 1003,6 hPa 0,4 l/m 0,0 km/h W-SW 0,0 C 2,8 C 0,0 km/h
05.12.2012 12:00 3,8 C 84 % 1003,5 hPa 0,0 l/m 0,0 km/h W-SW 1,4 C 3,8 C 0,0 km/h
05.12.2012 13:00 4,5 C 87 % 1003,3 hPa 0,0 l/m 10,4 km/h S-SW 2,5 C 1,2 C 5,8 km/h
05.12.2012 14:00 4,7 C 86 % 1003,1 hPa 0,0 l/m 0,6 km/h W 2,6 C 4,7 C 0,4 km/h
05.12.2012 15:00 4,1 C 86 % 1003,1 hPa 0,0 l/m 0,0 km/h SO 2,0 C 4,1 C 0,0 km/h
05.12.2012 16:00 0,9 C 87 % 1003,4 hPa 0,4 l/m 2,6 km/h O-SO -1,0 C 0,9 C 1,4 km/h
05.12.2012 17:00 0,8 C 86 % 1003,5 hPa 0,4 l/m 0,0 km/h NO -1,3 C 0,8 C 0,0 km/h
05.12.2012 18:00 1,1 C 84 % 1004,1 hPa 0,0 l/m 0,0 km/h O-NO -1,3 C 1,1 C 0,0 km/h
05.12.2012 19:00 0,9 C 83 % 1004,1 hPa 0,4 l/m 0,0 km/h SO -1,7 C 0,9 C 0,0 km/h
05.12.2012 20:00 0,6 C 83 % 1003,9 hPa 0,0 l/m 0,0 km/h S -1,9 C 0,6 C 0,0 km/h
05.12.2012 21:00 0,9 C 82 % 1004,2 hPa 0,0 l/m 2,6 km/h S-SW -1,8 C 0,9 C 1,4 km/h
05.12.2012 22:00 0,8 C 81 % 1004,2 hPa 0,4 l/m 2,6 km/h N -2,1 C 0,8 C 1,4 km/h
05.12.2012 23:00 0,9 C 79 % 1004,9 hPa 0,0 l/m 0,0 km/h O-SO -2,3 C 0,9 C 0,0 km/h
06.12.2012 00:00 0,9 C 79 % 1005,3 hPa 0,0 l/m 0,0 km/h O-SO -2,3 C 0,9 C 0,0 km/h
06.12.2012 01:00 1,1 C 78 % 1005,8 hPa 0,0 l/m 0,0 km/h W -2,3 C 1,1 C 0,0 km/h
06.12.2012 02:00 1,1 C 78 % 1006,6 hPa 0,0 l/m 0,0 km/h W-NW -2,3 C 1,1 C 0,0 km/h
06.12.2012 03:00 1,1 C 77 % 1007,6 hPa 0,0 l/m 12,3 km/h W-NW -2,5 C -3,9 C 6,8 km/h
06.12.2012 04:00 1,0 C 76 % 1008,6 hPa 0,4 l/m 0,0 km/h W-NW -2,7 C 1,0 C 0,0 km/h
06.12.2012 05:00 0,9 C 76 % 1009,3 hPa 0,0 l/m 1,3 km/h W-NW -2,8 C 0,9 C 0,7 km/h
06.12.2012 06:00 0,9 C 78 % 1010,4 hPa 0,0 l/m 0,0 km/h W-NW -2,5 C 0,9 C 0,0 km/h
06.12.2012 07:00 0,8 C 82 % 1011,3 hPa 0,0 l/m 0,0 km/h W -1,9 C 0,8 C 0,0 km/h
06.12.2012 08:00 0,3 C 83 % 1012,6 hPa 0,0 l/m 0,0 km/h W-NW -2,2 C 0,3 C 0,0 km/h
06.12.2012 09:00 0,8 C 82 % 1013,7 hPa 0,0 l/m 3,2 km/h W -1,9 C 0,8 C 1,8 km/h
06.12.2012 10:00 1,3 C 84 % 1014,8 hPa 0,0 l/m 3,2 km/h N-NW -1,1 C 1,3 C 1,8 km/h
06.12.2012 11:00 2,1 C 87 % 1015,2 hPa 0,0 l/m 5,2 km/h W 0,2 C 2,1 C 2,9 km/h
06.12.2012 12:00 5,8 C 76 % 1015,1 hPa 0,0 l/m 18,8 km/h N-NW 1,9 C -1,7 C 10,4 km/h
06.12.2012 13:00 5,6 C 64 % 1015,5 hPa 0,0 l/m 0,6 km/h NW -0,7 C 5,6 C 0,4 km/h
06.12.2012 14:00 7,1 C 64 % 1015,8 hPa 0,0 l/m 11,0 km/h NW 0,8 C 3,8 C 6,1 km/h
06.12.2012 15:00 4,3 C 60 % 1015,9 hPa 0,0 l/m 0,0 km/h N-NW -2,8 C 4,3 C 0,0 km/h
06.12.2012 16:00 2,9 C 64 % 1016,2 hPa 0,0 l/m 0,0 km/h N-NW -3,2 C 2,9 C 0,0 km/h
06.12.2012 17:00 -0,7 C 76 % 1016,6 hPa 0,0 l/m 0,0 km/h O-SO -4,4 C -0,7 C 0,0 km/h
06.12.2012 18:00 -1,3 C 83 % 1016,6 hPa 0,0 l/m 0,0 km/h SO -3,8 C -1,3 C 0,0 km/h
06.12.2012 19:00 -0,7 C 85 % 1016,3 hPa 0,0 l/m 0,0 km/h S-SO -2,9 C -0,7 C 0,0 km/h
06.12.2012 20:00 -2,5 C 87 % 1016,6 hPa 0,0 l/m 0,0 km/h SO -4,4 C -2,5 C 0,0 km/h
06.12.2012 21:00 -2,9 C 87 % 1016,1 hPa 0,0 l/m 0,0 km/h SO -4,8 C -2,9 C 0,0 km/h
06.12.2012 22:00 -3,1 C 87 % 1015,7 hPa 0,0 l/m 0,0 km/h SO -4,9 C -3,1 C 0,0 km/h
06.12.2012 23:00 -3,3 C 87 % 1014,9 hPa 0,0 l/m 0,0 km/h S-SO -5,1 C -3,3 C 0,0 km/h
07.12.2012 00:00 -4,1 C 87 % 1014,3 hPa 0,0 l/m 1,3 km/h SO -5,9 C -4,1 C 0,7 km/h
07.12.2012 01:00 -4,5 C 87 % 1013,2 hPa 0,0 l/m 0,0 km/h S-SO -6,3 C -4,5 C 0,0 km/h
07.12.2012 02:00 -4,2 C 87 % 1012,3 hPa 0,0 l/m 3,9 km/h S-SO -6,0 C -4,2 C 2,2 km/h
07.12.2012 03:00 -4,2 C 87 % 1011,5 hPa 0,0 l/m 2,6 km/h SO -6,0 C -4,2 C 1,4 km/h
07.12.2012 04:00 -4,0 C 87 % 1010,2 hPa 0,0 l/m 1,3 km/h S-SO -5,8 C -4,0 C 0,7 km/h
07.12.2012 05:00 -3,7 C 87 % 1009,2 hPa 0,0 l/m 5,2 km/h SO -5,5 C -3,7 C 2,9 km/h
07.12.2012 06:00 -3,4 C 87 % 1007,2 hPa 0,0 l/m 0,0 km/h SO -5,2 C -3,4 C 0,0 km/h
07.12.2012 07:00 -3,6 C 87 % 1006,2 hPa 0,0 l/m 0,0 km/h SO -5,4 C -3,6 C 0,0 km/h
07.12.2012 08:00 -2,4 C 87 % 1005,0 hPa 0,0 l/m 4,5 km/h S-SO -4,3 C -2,4 C 2,5 km/h
07.12.2012 09:00 -0,7 C 83 % 1003,8 hPa 0,0 l/m 6,5 km/h SO -3,2 C -0,8 C 3,6 km/h
07.12.2012 10:00 -0,5 C 82 % 1002,7 hPa 0,0 l/m 0,0 km/h NO -3,2 C -0,5 C 0,0 km/h
07.12.2012 11:00 -0,4 C 83 % 1003,4 hPa 0,0 l/m 1,3 km/h SO -2,9 C -0,4 C 0,7 km/h
07.12.2012 12:00 -0,2 C 86 % 1001,7 hPa 0,0 l/m 0,0 km/h O -2,3 C -0,2 C 0,0 km/h
07.12.2012 13:00 0,5 C 86 % 1000,3 hPa 0,0 l/m 0,0 km/h W -1,6 C 0,5 C 0,0 km/h
07.12.2012 14:00 0,6 C 86 % 1000,4 hPa 0,0 l/m 0,0 km/h W -1,5 C 0,6 C 0,0 km/h
07.12.2012 15:00 0,7 C 85 % 1000,6 hPa 0,0 l/m 0,0 km/h W -1,5 C 0,7 C 0,0 km/h
07.12.2012 16:00 0,9 C 85 % 1001,0 hPa 0,0 l/m 0,0 km/h NO -1,3 C 0,9 C 0,0 km/h
07.12.2012 17:00 0,2 C 86 % 1001,1 hPa 0,0 l/m 0,0 km/h O -1,9 C 0,2 C 0,0 km/h
07.12.2012 18:00 -0,4 C 87 % 1001,7 hPa 0,0 l/m 0,0 km/h O -2,3 C -0,4 C 0,0 km/h
07.12.2012 19:00 -0,6 C 87 % 1002,2 hPa 0,0 l/m 0,0 km/h O -2,5 C -0,6 C 0,0 km/h
07.12.2012 20:00 -0,5 C 86 % 1002,5 hPa 0,0 l/m 0,0 km/h O -2,5 C -0,5 C 0,0 km/h
07.12.2012 21:00 -0,1 C 86 % 1002,5 hPa 0,0 l/m 0,0 km/h O -2,2 C -0,1 C 0,0 km/h
07.12.2012 22:00 0,1 C 85 % 1002,8 hPa 0,0 l/m 0,0 km/h O -2,1 C 0,1 C 0,0 km/h
07.12.2012 23:00 0,1 C 85 % 1003,0 hPa 0,0 l/m 0,0 km/h O -2,1 C 0,1 C 0,0 km/h
08.12.2012 00:00 -0,1 C 85 % 1003,2 hPa 0,0 l/m 0,0 km/h O -2,3 C -0,1 C 0,0 km/h
08.12.2012 01:00 -0,1 C 86 % 1003,7 hPa 0,0 l/m 0,0 km/h O -2,2 C -0,1 C 0,0 km/h
08.12.2012 02:00 -1,3 C 86 % 1004,3 hPa 0,0 l/m 0,0 km/h O -3,3 C -1,3 C 0,0 km/h
08.12.2012 03:00 -2,7 C 87 % 1005,4 hPa 0,0 l/m 0,0 km/h NO -4,6 C -2,7 C 0,0 km/h
08.12.2012 04:00 -2,4 C 86 % 1006,9 hPa 0,0 l/m 1,9 km/h O -4,4 C -2,4 C 1,1 km/h
08.12.2012 05:00 -1,4 C 87 % 1008,2 hPa 0,0 l/m 0,0 km/h NW -3,3 C -1,4 C 0,0 km/h
08.12.2012 06:00 -2,4 C 87 % 1009,6 hPa 0,0 l/m 0,0 km/h N-NW -4,3 C -2,4 C 0,0 km/h
08.12.2012 07:00 -3,2 C 86 % 1011,2 hPa 0,0 l/m 0,0 km/h NW -5,2 C -3,2 C 0,0 km/h
08.12.2012 08:00 -2,8 C 85 % 1012,8 hPa 0,0 l/m 0,0 km/h N -5,0 C -2,8 C 0,0 km/h
08.12.2012 09:00 -2,0 C 84 % 1014,7 hPa 0,0 l/m 0,0 km/h NW -4,3 C -2,0 C 0,0 km/h
08.12.2012 10:00 -1,5 C 85 % 1016,0 hPa 0,0 l/m 0,0 km/h W-NW -3,7 C -1,5 C 0,0 km/h
08.12.2012 11:00 0,1 C 87 % 1017,4 hPa 0,0 l/m 0,0 km/h NW -1,8 C 0,1 C 0,0 km/h
08.12.2012 12:00 -0,2 C 85 % 1018,1 hPa 0,0 l/m 1,9 km/h NW -2,4 C -0,2 C 1,1 km/h
08.12.2012 13:00 -0,7 C 85 % 1019,0 hPa 0,0 l/m 4,5 km/h W -2,9 C -0,7 C 2,5 km/h
08.12.2012 14:00 -0,6 C 85 % 1019,4 hPa 0,0 l/m 0,0 km/h S -2,8 C -0,6 C 0,0 km/h
08.12.2012 15:00 -0,8 C 85 % 1020,1 hPa 0,0 l/m 0,0 km/h NO -3,0 C -0,8 C 0,0 km/h
08.12.2012 16:00 -1,3 C 85 % 1021,2 hPa 0,0 l/m 0,0 km/h N-NW -3,5 C -1,3 C 0,0 km/h
08.12.2012 17:00 -1,8 C 86 % 1021,7 hPa 0,0 l/m 0,0 km/h NW -3,8 C -1,8 C 0,0 km/h
08.12.2012 18:00 -1,9 C 87 % 1022,6 hPa 0,0 l/m 0,0 km/h NW -3,8 C -1,9 C 0,0 km/h
08.12.2012 19:00 -4,1 C 87 % 1023,4 hPa 0,0 l/m 0,0 km/h O-NO -5,9 C -4,1 C 0,0 km/h
08.12.2012 20:00 -5,8 C 87 % 1024,1 hPa 0,0 l/m 0,0 km/h NO -7,6 C -5,8 C 0,0 km/h
08.12.2012 21:00 -5,1 C 87 % 1024,7 hPa 0,0 l/m 0,0 km/h O-SO -6,9 C -5,1 C 0,0 km/h
08.12.2012 22:00 -3,9 C 87 % 1024,9 hPa 0,0 l/m 0,0 km/h S-SO -5,7 C -3,9 C 0,0 km/h
08.12.2012 23:00 -6,2 C 88 % 1024,9 hPa 0,0 l/m 0,0 km/h O -7,9 C -6,2 C 0,0 km/h
09.12.2012 00:00 -6,4 C 87 % 1024,7 hPa 0,0 l/m 0,0 km/h O -8,2 C -6,4 C 0,0 km/h
09.12.2012 01:00 -7,2 C 88 % 1024,6 hPa 0,0 l/m 0,0 km/h SO -8,8 C -7,2 C 0,0 km/h
09.12.2012 02:00 -7,4 C 88 % 1025,2 hPa 0,0 l/m 0,0 km/h S-SO -9,0 C -7,4 C 0,0 km/h
09.12.2012 03:00 -6,4 C 88 % 1025,1 hPa 0,0 l/m 0,0 km/h S-SO -8,1 C -6,4 C 0,0 km/h
09.12.2012 04:00 -6,1 C 88 % 1024,6 hPa 0,0 l/m 1,9 km/h S-SO -7,8 C -6,1 C 1,1 km/h
09.12.2012 05:00 -6,4 C 88 % 1024,2 hPa 0,0 l/m 0,0 km/h SO -8,1 C -6,4 C 0,0 km/h
09.12.2012 06:00 -6,9 C 87 % 1024,4 hPa 0,0 l/m 0,0 km/h SO -8,7 C -6,9 C 0,0 km/h
09.12.2012 07:00 -6,6 C 87 % 1023,8 hPa 0,0 l/m 0,0 km/h O-SO -8,4 C -6,6 C 0,0 km/h
09.12.2012 08:00 -6,1 C 87 % 1023,7 hPa 0,0 l/m 0,0 km/h NO -7,9 C -6,1 C 0,0 km/h
09.12.2012 09:00 -4,6 C 86 % 1023,9 hPa 0,0 l/m 0,0 km/h NO -6,6 C -4,6 C 0,0 km/h
09.12.2012 10:00 -2,2 C 85 % 1023,3 hPa 0,0 l/m 0,0 km/h W -4,4 C -2,2 C 0,0 km/h
09.12.2012 11:00 0,0 C 86 % 1022,3 hPa 0,0 l/m 0,0 km/h W -2,1 C 0,0 C 0,0 km/h
09.12.2012 12:00 1,3 C 80 % 1021,0 hPa 0,0 l/m 27,2 km/h W-SW -1,8 C -10,7 C 15,1 km/h
09.12.2012 13:00 1,3 C 79 % 1020,1 hPa 0,0 l/m 22,7 km/h W-SW -1,9 C -9,1 C 12,6 km/h
09.12.2012 14:00 0,9 C 81 % 1019,5 hPa 0,0 l/m 37,6 km/h W-SW -2,0 C -14,1 C 20,9 km/h
09.12.2012 15:00 1,1 C 80 % 1018,9 hPa 0,4 l/m 41,5 km/h W-SW -2,0 C -14,6 C 23,0 km/h
09.12.2012 16:00 1,2 C 81 % 1017,8 hPa 0,0 l/m 25,3 km/h W-SW -1,7 C -10,2 C 14,0 km/h
09.12.2012 17:00 1,4 C 81 % 1017,0 hPa 0,0 l/m 25,9 km/h W-SW -1,5 C -10,1 C 14,4 km/h
09.12.2012 18:00 1,6 C 80 % 1016,5 hPa 0,0 l/m 21,4 km/h W-NW -1,5 C -8,2 C 11,9 km/h
09.12.2012 19:00 1,7 C 80 % 1015,8 hPa 0,0 l/m 53,8 km/h W-NW -1,4 C -15,5 C 29,9 km/h
09.12.2012 20:00 1,7 C 81 % 1015,2 hPa 0,0 l/m 27,9 km/h W -1,2 C -10,4 C 15,5 km/h
09.12.2012 21:00 1,3 C 85 % 1014,8 hPa 0,0 l/m 31,1 km/h W-SW -0,9 C -11,9 C 17,3 km/h
09.12.2012 22:00 1,5 C 84 % 1014,2 hPa 0,0 l/m 29,8 km/h W-SW -0,9 C -11,2 C 16,6 km/h
09.12.2012 23:00 1,7 C 84 % 1013,6 hPa 0,4 l/m 18,8 km/h W-SW -0,7 C -6,9 C 10,4 km/h
Min-Datum _ 09.12.12 06.12.12 04.12.12 - 03.12.12 - 09.12.12 09.12.12 03.12.12
_ Min-Zeit 02:19 15:19 07:19 - 02:19 - 02:19 19:19 02:19
Minimum _ -7,4 C 60 % 998,3 hPa - 0,0 km/h - -9,0 C -15,5 C 0,0 km/h
Max-Datum _ 06.12.12 08.12.12 09.12.12 04.12.12 04.12.12 - 04.12.12 04.12.12 04.12.12
_ Max-Zeit 14:19 23:19 02:19 16:19 09:19 - 08:19 02:19 09:19
Maximum _ 7,1 C 88 % 1025,2 hPa 1,1 l/m 57,0 km/h
N
- 4,4 C 6,2 C 31,7 km/h
N
Durchschnitt _ 0,5 C 84 % 1010,5 hPa #9,3 l/m 5,4 km/h W -2,0 C -1,3 C 3,0 km/h
www.sexauwetter.de